Time;durP1;ratioP1;P1;durP2;ratioP2;P2;SDS_P1;SDS_P2;PMS_P1;PMS_P2;Temp;Humidity;BMP_temperature;BMP_pressure;BME280_temperature;BME280_humidity;BME280_pressure;Samples;Min_cycle;Max_cycle;Signal;HPM_P1;HPM_P2
2021/07/01 00:02:05;;;;;;;31.23;14.48;;;13.70;99.90;;;;;;4980178;28;20471;-92
2021/07/01 00:04:32;;;;;;;29.40;13.48;;;13.80;99.90;;;;;;4996375;28;20034;-92
2021/07/01 00:06:59;;;;;;;27.83;13.20;;;13.70;99.90;;;;;;5011686;28;20050;-91
2021/07/01 00:09:26;;;;;;;36.15;14.18;;;13.70;99.90;;;;;;4980035;28;20066;-92
2021/07/01 00:11:55;;;;;;;30.17;14.27;;;13.70;99.90;;;;;;4980067;28;20050;-91
2021/07/01 00:14:24;;;;;;;28.63;13.40;;;13.70;99.90;;;;;;5011253;28;20070;-90
2021/07/01 00:16:52;;;;;;;40.28;13.90;;;13.80;99.90;;;;;;5011820;28;20069;-92
2021/07/01 00:19:22;;;;;;;43.53;14.35;;;13.80;99.90;;;;;;5011205;28;20051;-91
2021/07/01 00:21:49;;;;;;;34.22;14.15;;;13.70;99.90;;;;;;5012086;28;20041;-93
2021/07/01 00:24:15;;;;;;;42.78;15.05;;;13.70;99.90;;;;;;5011802;28;20050;-90
2021/07/01 00:26:42;;;;;;;28.55;12.70;;;13.70;99.90;;;;;;4996138;28;20045;-91
2021/07/01 00:29:09;;;;;;;35.25;12.88;;;13.70;99.90;;;;;;4995468;28;20039;-91
2021/07/01 00:31:36;;;;;;;36.72;13.65;;;13.80;99.90;;;;;;4995381;28;20399;-91
2021/07/01 00:34:03;;;;;;;34.83;13.48;;;13.80;99.90;;;;;;5011616;28;20046;-90
2021/07/01 00:36:30;;;;;;;41.22;13.80;;;13.70;99.90;;;;;;4980181;28;20043;-89
2021/07/01 00:38:57;;;;;;;41.53;14.63;;;13.80;99.90;;;;;;5011353;28;20035;-91
2021/07/01 00:41:24;;;;;;;32.13;12.82;;;13.80;99.90;;;;;;4994993;28;20046;-90
2021/07/01 00:43:51;;;;;;;33.10;14.10;;;13.80;99.90;;;;;;5011496;28;20475;-91
2021/07/01 00:46:18;;;;;;;29.20;12.88;;;13.80;99.90;;;;;;4994971;28;20467;-91
2021/07/01 00:48:45;;;;;;;43.13;14.30;;;13.80;99.90;;;;;;4995383;28;20081;-92
2021/07/01 00:51:12;;;;;;;46.53;12.85;;;13.80;99.90;;;;;;5011262;28;20038;-92
2021/07/01 00:53:40;;;;;;;36.25;12.98;;;13.80;99.90;;;;;;4995640;28;20054;-92
2021/07/01 00:56:09;;;;;;;34.67;13.15;;;13.80;99.90;;;;;;5010560;28;20035;-93
2021/07/01 00:58:39;;;;;;;39.92;13.55;;;13.80;99.90;;;;;;4995921;28;20038;-90
2021/07/01 01:01:06;;;;;;;33.40;12.80;;;13.80;99.90;;;;;;4979243;28;20051;-93
2021/07/01 01:03:35;;;;;;;38.65;12.80;;;13.80;99.90;;;;;;5011109;28;20045;-94
2021/07/01 01:06:03;;;;;;;35.72;13.10;;;13.90;99.90;;;;;;5011672;28;20050;-95
2021/07/01 01:08:31;;;;;;;32.25;13.15;;;13.80;99.90;;;;;;4979497;28;20047;-96
2021/07/01 01:10:58;;;;;;;27.00;9.95;;;13.80;99.90;;;;;;5011678;28;20054;-94
2021/07/01 01:13:27;;;;;;;27.40;10.57;;;13.70;99.90;;;;;;4995097;28;20646;-95
2021/07/01 01:16:02;;;;;;;18.92;9.07;;;13.90;99.90;;;;;;5011382;28;20070;-95
2021/07/01 01:18:30;;;;;;;19.25;8.85;;;13.80;99.90;;;;;;4994453;28;20113;-96
2021/07/01 01:20:59;;;;;;;14.55;8.95;;;13.80;99.90;;;;;;4995424;28;20114;-94
2021/07/01 01:23:26;;;;;;;22.35;8.85;;;13.80;99.90;;;;;;4994837;28;20046;-93
2021/07/01 01:25:58;;;;;;;18.90;9.57;;;13.80;99.90;;;;;;4995131;28;20047;-92
2021/07/01 01:28:25;;;;;;;18.75;9.25;;;13.80;99.90;;;;;;4994359;28;20496;-92
2021/07/01 01:30:52;;;;;;;20.92;10.00;;;13.80;99.90;;;;;;4994864;28;20101;-92
2021/07/01 01:33:20;;;;;;;19.67;9.93;;;13.80;99.90;;;;;;4994453;28;20047;-93
2021/07/01 01:35:47;;;;;;;24.08;10.35;;;13.70;99.90;;;;;;4995346;28;20105;-94
2021/07/01 01:38:16;;;;;;;21.80;10.45;;;13.80;99.90;;;;;;4994106;28;20023;-94
2021/07/01 01:40:45;;;;;;;23.60;10.00;;;13.80;99.90;;;;;;5011445;28;20522;-93
2021/07/01 01:43:14;;;;;;;24.30;11.27;;;13.80;99.90;;;;;;4978599;28;20135;-92
2021/07/01 01:45:44;;;;;;;25.77;11.27;;;13.80;99.90;;;;;;5010365;28;20050;-93
2021/07/01 01:48:12;;;;;;;21.73;11.65;;;13.80;99.90;;;;;;4977824;28;20047;-92
2021/07/01 01:50:40;;;;;;;26.88;12.93;;;13.80;99.90;;;;;;5010618;28;20133;-90
2021/07/01 01:53:08;;;;;;;26.13;12.73;;;13.80;99.90;;;;;;5010781;28;20050;-89
2021/07/01 01:55:36;;;;;;;28.77;13.82;;;13.80;99.90;;;;;;4978405;28;20042;-90
2021/07/01 01:58:04;;;;;;;26.92;13.18;;;13.80;99.90;;;;;;5010458;28;20070;-88
2021/07/01 02:00:32;;;;;;;32.47;14.75;;;13.70;99.90;;;;;;5009820;28;20081;-88
2021/07/01 02:02:59;;;;;;;40.40;15.13;;;13.80;99.90;;;;;;4978492;28;20045;-89
2021/07/01 02:05:30;;;;;;;31.92;14.80;;;13.70;99.90;;;;;;4978487;28;20546;-93
2021/07/01 02:07:57;;;;;;;41.42;15.52;;;13.70;99.90;;;;;;5010036;28;20125;-93
2021/07/01 02:10:26;;;;;;;43.25;15.70;;;13.80;99.90;;;;;;4977779;28;20047;-92
2021/07/01 02:12:54;;;;;;;46.85;15.73;;;13.70;99.90;;;;;;5009911;28;20055;-93
2021/07/01 02:15:23;;;;;;;39.50;16.83;;;13.70;99.90;;;;;;4977976;28;20051;-89
2021/07/01 02:17:55;;;;;;;42.47;16.05;;;13.70;99.90;;;;;;5010155;28;20066;-91
2021/07/01 02:20:24;;;;;;;41.95;16.25;;;13.80;99.90;;;;;;4994163;28;20039;-90
2021/07/01 02:22:52;;;;;;;43.67;15.32;;;13.80;99.90;;;;;;5010324;28;20047;-91
2021/07/01 02:25:19;;;;;;;43.58;16.65;;;13.80;99.90;;;;;;5009335;28;20404;-91
2021/07/01 02:27:46;;;;;;;39.55;15.25;;;13.80;99.90;;;;;;4993937;28;20054;-92
2021/07/01 02:30:16;;;;;;;33.42;15.32;;;13.80;99.90;;;;;;4994006;28;20554;-91
2021/07/01 02:32:44;;;;;;;42.80;16.00;;;13.80;99.90;;;;;;4978184;28;20043;-92
2021/07/01 02:35:11;;;;;;;39.70;16.60;;;13.80;99.90;;;;;;4993058;28;20050;-91
2021/07/01 02:37:40;;;;;;;39.70;15.75;;;13.80;99.90;;;;;;4993121;28;20051;-89
2021/07/01 02:40:14;;;;;;;45.40;16.45;;;13.80;99.90;;;;;;4993545;28;20057;-90
2021/07/01 02:42:42;;;;;;;38.60;16.23;;;13.80;99.90;;;;;;4993422;28;20085;-89
2021/07/01 02:45:11;;;;;;;33.50;15.10;;;13.90;99.90;;;;;;4993359;28;20399;-89
2021/07/01 02:47:39;;;;;;;35.03;16.27;;;13.90;99.90;;;;;;4992918;28;20123;-88
2021/07/01 02:50:07;;;;;;;34.63;15.23;;;13.90;99.90;;;;;;4993350;28;20563;-87
2021/07/01 02:52:34;;;;;;;40.95;15.18;;;13.80;99.90;;;;;;4993285;28;20047;-88
2021/07/01 02:55:02;;;;;;;37.00;14.98;;;13.80;99.90;;;;;;4993369;28;20475;-87
2021/07/01 02:57:29;;;;;;;33.03;14.73;;;13.80;99.90;;;;;;4992648;28;20142;-87
2021/07/01 02:59:56;;;;;;;38.00;15.85;;;13.80;99.90;;;;;;4993261;28;20137;-87
2021/07/01 03:02:23;;;;;;;42.03;14.95;;;13.80;99.90;;;;;;4992896;28;20054;-89
2021/07/01 03:04:50;;;;;;;40.10;15.10;;;13.80;99.90;;;;;;4993288;28;20154;-87
2021/07/01 03:07:17;;;;;;;33.75;14.55;;;13.80;99.90;;;;;;4958324;29;20059;-89
2021/07/01 03:09:44;;;;;;;32.50;15.30;;;13.90;99.90;;;;;;4973476;29;20054;-87
2021/07/01 03:12:11;;;;;;;30.67;13.30;;;13.90;99.90;;;;;;4973447;29;20066;-89
2021/07/01 03:14:52;;;;;;;26.38;12.55;;;13.90;99.90;;;;;;4975502;29;20075;-92
2021/07/01 03:17:25;;;;;;;29.95;12.95;;;13.90;99.90;;;;;;4975457;29;20043;-95
2021/07/01 03:20:02;;;;;;;25.58;11.70;;;14.00;99.90;;;;;;4991243;29;20047;-93
2021/07/01 03:22:29;;;;;;;21.25;10.82;;;13.90;99.90;;;;;;4973532;29;20122;-92
2021/07/01 03:24:57;;;;;;;27.95;12.27;;;13.90;99.90;;;;;;4973938;29;20069;-94
2021/07/01 03:27:24;;;;;;;26.30;12.75;;;13.90;99.90;;;;;;4972968;29;20130;-94
2021/07/01 03:29:51;;;;;;;23.00;12.10;;;13.90;99.90;;;;;;4974141;29;20055;-92
2021/07/01 03:32:27;;;;;;;24.17;12.52;;;13.90;99.90;;;;;;4973721;29;20051;-93
2021/07/01 03:34:57;;;;;;;33.72;13.55;;;13.80;99.90;;;;;;4973833;29;20053;-91
2021/07/01 03:37:24;;;;;;;26.67;12.77;;;14.00;99.90;;;;;;4972858;29;20043;-95
2021/07/01 03:40:01;;;;;;;35.83;13.90;;;14.00;99.90;;;;;;4958013;29;20043;-95
2021/07/01 03:42:32;;;;;;;28.48;13.30;;;14.00;99.90;;;;;;4959205;29;20055;-94
2021/07/01 03:44:59;;;;;;;27.42;13.95;;;14.00;99.90;;;;;;4957590;29;20048;-94
2021/07/01 03:47:26;;;;;;;42.13;15.05;;;14.00;99.90;;;;;;4957343;29;20055;-91
2021/07/01 03:49:53;;;;;;;39.10;15.82;;;14.00;99.90;;;;;;4973250;29;20480;-93
2021/07/01 03:52:20;;;;;;;28.80;15.00;;;14.00;99.90;;;;;;4973732;28;20051;-94
2021/07/01 03:54:47;;;;;;;34.15;16.08;;;14.00;99.90;;;;;;4957319;29;20051;-94
2021/07/01 03:57:25;;;;;;;44.95;16.15;;;14.00;99.90;;;;;;4973150;29;20051;-96
2021/07/01 03:59:52;;;;;;;40.50;16.58;;;14.00;99.90;;;;;;4973421;29;20408;-93
2021/07/01 04:02:20;;;;;;;37.33;15.68;;;14.10;99.90;;;;;;4973359;29;20055;-92
2021/07/01 04:04:47;;;;;;;40.13;17.80;;;14.00;99.90;;;;;;4957428;29;20047;-93
2021/07/01 04:07:14;;;;;;;57.78;18.40;;;14.00;99.90;;;;;;4975343;28;20483;-92
2021/07/01 04:09:50;;;;;;;40.63;16.83;;;13.90;99.90;;;;;;4991495;28;20105;-95
2021/07/01 04:12:17;;;;;;;38.88;18.05;;;14.10;99.90;;;;;;4992563;28;20050;-92
2021/07/01 04:14:44;;;;;;;46.78;19.40;;;14.10;99.90;;;;;;4992161;28;20498;-90
2021/07/01 04:17:20;;;;;;;39.55;17.88;;;14.10;99.90;;;;;;4993789;28;20035;-95
2021/07/01 04:19:47;;;;;;;60.83;19.55;;;14.10;99.90;;;;;;4992569;28;20567;-95
2021/07/01 04:22:14;;;;;;;49.80;19.35;;;14.10;99.90;;;;;;4976242;28;20074;-93
2021/07/01 04:24:41;;;;;;;48.60;19.17;;;14.10;99.90;;;;;;4991761;28;20050;-93
2021/07/01 04:27:11;;;;;;;53.67;20.60;;;14.10;99.90;;;;;;4993120;28;20061;-92
2021/07/01 04:29:39;;;;;;;41.63;17.38;;;14.10;99.90;;;;;;4992671;28;20117;-92
2021/07/01 04:32:06;;;;;;;50.22;19.77;;;14.10;99.90;;;;;;4976327;28;20133;-92
2021/07/01 04:34:33;;;;;;;58.75;19.90;;;14.10;99.90;;;;;;4992532;28;20082;-92
2021/07/01 04:37:02;;;;;;;45.13;19.27;;;14.10;99.90;;;;;;4995833;28;20050;-91
2021/07/01 04:39:29;;;;;;;47.45;19.58;;;14.10;99.90;;;;;;4980202;28;20066;-91
2021/07/01 04:41:57;;;;;;;43.20;18.73;;;14.20;99.90;;;;;;5012317;28;20492;-92
2021/07/01 04:44:24;;;;;;;55.40;19.42;;;14.20;99.90;;;;;;4996173;28;20467;-92
2021/07/01 04:46:51;;;;;;;46.50;19.40;;;14.20;99.90;;;;;;4995656;28;20042;-92
2021/07/01 04:49:30;;;;;;;55.95;19.63;;;14.20;99.90;;;;;;4995856;28;20054;-95
2021/07/01 04:51:57;;;;;;;61.92;20.80;;;14.20;99.90;;;;;;4996305;28;20403;-93
2021/07/01 04:54:24;;;;;;;54.92;20.73;;;14.30;99.90;;;;;;4995639;28;20042;-93
2021/07/01 04:56:51;;;;;;;60.53;19.95;;;14.30;99.90;;;;;;4979404;28;20050;-90
2021/07/01 04:59:21;;;;;;;47.42;20.02;;;14.30;99.90;;;;;;5011528;28;20065;-91
2021/07/01 05:01:48;;;;;;;51.17;19.45;;;14.30;99.90;;;;;;5020596;28;20041;-92
2021/07/01 05:04:15;;;;;;;58.72;19.55;;;14.30;99.90;;;;;;5031173;28;20097;-92
2021/07/01 05:06:42;;;;;;;53.70;20.75;;;14.40;99.90;;;;;;5008996;28;20061;-92
2021/07/01 05:09:10;;;;;;;44.72;19.92;;;14.40;99.90;;;;;;5014320;28;20088;-92
2021/07/01 05:11:37;;;;;;;50.63;20.30;;;14.40;99.90;;;;;;5013941;28;20076;-92
2021/07/01 05:14:04;;;;;;;57.83;20.75;;;14.40;99.90;;;;;;4998893;28;20046;-91
2021/07/01 05:16:33;;;;;;;51.40;20.20;;;14.40;99.90;;;;;;4998613;28;20050;-91
2021/07/01 05:19:01;;;;;;;53.13;19.92;;;14.50;99.90;;;;;;5030908;28;20391;-90
2021/07/01 05:21:28;;;;;;;51.72;19.50;;;14.50;99.90;;;;;;5014590;28;20049;-91
2021/07/01 05:23:56;;;;;;;52.03;21.13;;;14.50;99.90;;;;;;5029966;28;20031;-90
2021/07/01 05:26:23;;;;;;;53.60;21.00;;;14.50;99.90;;;;;;5014067;28;20050;-91
2021/07/01 05:28:51;;;;;;;49.92;19.25;;;14.50;99.90;;;;;;4998374;28;20132;-90
2021/07/01 05:31:21;;;;;;;49.67;20.08;;;14.50;99.90;;;;;;5014550;28;20465;-91
2021/07/01 05:33:47;;;;;;;49.10;19.63;;;14.60;99.90;;;;;;4997728;28;20050;-90
2021/07/01 05:36:14;;;;;;;60.58;20.08;;;14.60;99.90;;;;;;4979568;28;20077;-92
2021/07/01 05:38:41;;;;;;;55.63;20.98;;;14.60;99.90;;;;;;4994252;28;20388;-90
2021/07/01 05:41:08;;;;;;;52.20;20.88;;;14.60;99.90;;;;;;4978868;28;20125;-90
2021/07/01 05:43:35;;;;;;;44.50;19.45;;;14.70;99.90;;;;;;4979081;28;20160;-90
2021/07/01 05:46:03;;;;;;;58.85;20.25;;;14.70;99.90;;;;;;4995100;28;20062;-92
2021/07/01 05:48:30;;;;;;;57.60;20.63;;;14.70;99.90;;;;;;5010813;28;20054;-92
2021/07/01 05:51:05;;;;;;;46.00;19.90;;;14.70;99.90;;;;;;4994198;28;20109;-92
2021/07/01 05:53:40;;;;;;;47.30;19.38;;;14.70;99.90;;;;;;4994189;28;20102;-93
2021/07/01 05:56:07;;;;;;;45.67;18.52;;;14.70;99.90;;;;;;5010426;28;20094;-91
2021/07/01 05:58:36;;;;;;;44.10;18.70;;;14.80;99.90;;;;;;4993872;28;20133;-89
2021/07/01 06:01:03;;;;;;;47.10;18.52;;;14.80;99.90;;;;;;4980679;28;20051;-90
2021/07/01 06:03:32;;;;;;;39.22;18.67;;;14.80;99.90;;;;;;4995644;28;20050;-90
2021/07/01 06:06:10;;;;;;;51.58;19.77;;;14.80;99.90;;;;;;4977831;28;20078;-93
2021/07/01 06:08:37;;;;;;;44.38;18.17;;;14.80;99.90;;;;;;5010281;28;20117;-93
2021/07/01 06:11:23;;;;;;;31.75;16.63;;;14.80;99.90;;;;;;5010743;28;20039;-94
2021/07/01 06:13:52;;;;;;;38.55;17.25;;;14.80;99.90;;;;;;4993963;28;20153;-93
2021/07/01 06:16:30;;;;;;;47.83;19.13;;;14.90;99.90;;;;;;4994135;28;20046;-94
2021/07/01 06:18:58;;;;;;;39.75;17.15;;;14.90;99.90;;;;;;4994384;28;20064;-94
2021/07/01 06:21:38;;;;;;;46.15;18.60;;;14.90;99.90;;;;;;4995115;28;20139;-95
2021/07/01 06:24:08;;;;;;;33.53;17.88;;;14.90;99.90;;;;;;4998388;28;20031;-94
2021/07/01 06:26:38;;;;;;;45.92;19.05;;;15.00;99.90;;;;;;4998397;28;20116;-95
2021/07/01 06:29:06;;;;;;;45.03;19.48;;;15.00;99.90;;;;;;4993745;28;20066;-93
2021/07/01 06:31:34;;;;;;;38.75;18.45;;;15.00;99.90;;;;;;5012077;28;20058;-96
2021/07/01 06:34:02;;;;;;;47.63;19.45;;;15.00;99.90;;;;;;5006373;28;20050;-95
2021/07/01 06:36:33;;;;;;;44.20;19.80;;;15.10;99.90;;;;;;5018431;28;20137;-96
2021/07/01 06:39:05;;;;;;;54.58;21.25;;;15.10;99.90;;;;;;4994874;28;20106;-95
2021/07/01 06:41:33;;;;;;;56.67;21.63;;;15.10;99.90;;;;;;5013621;28;20055;-96
2021/07/01 06:44:02;;;;;;;58.20;20.35;;;15.10;99.90;;;;;;5011459;28;20054;-96
2021/07/01 06:46:32;;;;;;;71.30;23.48;;;15.10;99.90;;;;;;4995324;28;20096;-93
2021/07/01 06:49:01;;;;;;;54.83;21.30;;;15.20;99.90;;;;;;4983712;29;20145;-92
2021/07/01 06:51:37;;;;;;;57.78;22.17;;;15.20;99.90;;;;;;4967758;29;20404;-96
2021/07/01 06:54:07;;;;;;;51.65;21.55;;;15.20;99.90;;;;;;4982690;28;20050;-93
2021/07/01 06:56:38;;;;;;;54.53;21.92;;;15.20;99.90;;;;;;5009945;28;20043;-91
2021/07/01 06:59:11;;;;;;;56.70;22.65;;;15.30;99.90;;;;;;4993415;28;20038;-94
2021/07/01 07:01:40;;;;;;;56.25;23.13;;;15.30;99.90;;;;;;5009127;28;20119;-90
2021/07/01 07:04:07;;;;;;;65.13;22.92;;;15.30;99.90;;;;;;5024389;28;20047;-91
2021/07/01 07:06:35;;;;;;;52.53;22.20;;;15.30;99.90;;;;;;4992847;28;20061;-93
2021/07/01 07:09:04;;;;;;;61.33;23.05;;;15.30;99.90;;;;;;4975942;28;20066;-92
2021/07/01 07:11:34;;;;;;;52.28;22.48;;;15.40;99.90;;;;;;4978559;29;20039;-93
2021/07/01 07:14:01;;;;;;;56.60;22.63;;;15.40;99.90;;;;;;4989613;28;20035;-92
2021/07/01 07:16:31;;;;;;;55.25;22.33;;;15.50;99.90;;;;;;4992631;28;20057;-93
2021/07/01 07:19:01;;;;;;;58.40;23.35;;;15.50;99.90;;;;;;5008369;28;20031;-91
2021/07/01 07:21:33;;;;;;;51.47;22.02;;;15.60;99.90;;;;;;5005515;28;20051;-94
2021/07/01 07:24:02;;;;;;;63.10;23.55;;;15.60;99.90;;;;;;4992055;28;20046;-91
2021/07/01 07:26:30;;;;;;;58.55;22.67;;;15.60;99.90;;;;;;5008777;28;20117;-92
2021/07/01 07:28:57;;;;;;;57.25;21.23;;;15.70;99.90;;;;;;4999174;28;20599;-91
2021/07/01 07:31:31;;;;;;;63.55;24.02;;;15.70;99.90;;;;;;4989358;29;20079;-93
2021/07/01 07:34:01;;;;;;;72.57;25.02;;;15.70;99.90;;;;;;4992901;28;20086;-91
2021/07/01 07:36:28;;;;;;;52.35;23.45;;;15.80;99.90;;;;;;4993668;28;20042;-95
2021/07/01 07:38:56;;;;;;;48.53;23.90;;;15.90;99.90;;;;;;4976484;28;20130;-95
2021/07/01 07:41:26;;;;;;;70.15;24.08;;;15.90;99.90;;;;;;4977945;28;20129;-94
2021/07/01 07:43:55;;;;;;;66.00;24.48;;;16.00;99.90;;;;;;4992375;28;20151;-92
2021/07/01 07:46:25;;;;;;;52.20;23.70;;;16.00;99.90;;;;;;5008408;28;20058;-95
2021/07/01 07:48:52;;;;;;;49.05;22.67;;;16.10;99.90;;;;;;4992151;28;20057;-94
2021/07/01 07:51:25;;;;;;;63.08;24.23;;;16.10;99.90;;;;;;4998217;28;20118;-94
2021/07/01 07:53:57;;;;;;;53.17;23.92;;;16.20;99.90;;;;;;4992282;28;20062;-93
2021/07/01 07:56:36;;;;;;;53.85;22.95;;;16.20;99.90;;;;;;4993047;28;20112;-91
2021/07/01 07:59:09;;;;;;;57.80;24.13;;;16.30;99.90;;;;;;4993018;28;20098;-96
2021/07/01 08:01:39;;;;;;;65.57;25.35;;;16.30;99.90;;;;;;4993720;28;20062;-96
2021/07/01 08:04:10;;;;;;;61.90;25.05;;;16.30;99.90;;;;;;4993183;28;20144;-92
2021/07/01 08:06:42;;;;;;;52.10;23.88;;;16.40;99.90;;;;;;4994984;28;20063;-96
2021/07/01 08:09:18;;;;;;;55.63;24.13;;;16.40;99.90;;;;;;4995288;28;20090;-95
2021/07/01 08:11:54;;;;;;;56.63;24.77;;;16.50;99.90;;;;;;5012067;28;20066;-94
2021/07/01 08:14:23;;;;;;;59.17;24.65;;;16.50;99.90;;;;;;4999621;28;20066;-93
2021/07/01 08:16:50;;;;;;;49.00;22.50;;;16.60;99.90;;;;;;4997223;28;20046;-93
2021/07/01 08:19:21;;;;;;;54.85;23.42;;;16.60;99.90;;;;;;4992848;28;20055;-95
2021/07/01 08:21:48;;;;;;;56.10;24.33;;;16.60;99.90;;;;;;5015568;28;20049;-94
2021/07/01 08:24:15;;;;;;;57.97;24.20;;;16.70;99.90;;;;;;5015746;28;20046;-94
2021/07/01 08:26:43;;;;;;;53.10;23.35;;;16.70;99.90;;;;;;5010502;28;20074;-94
2021/07/01 08:29:16;;;;;;;55.08;24.80;;;16.80;99.90;;;;;;5015972;28;20054;-93
2021/07/01 08:31:46;;;;;;;48.53;22.73;;;16.90;99.90;;;;;;5016990;28;20142;-92
2021/07/01 08:34:15;;;;;;;54.53;23.80;;;16.90;99.90;;;;;;5016388;28;20065;-96
2021/07/01 08:36:45;;;;;;;48.67;23.13;;;17.00;99.90;;;;;;5019692;28;20050;-91
2021/07/01 08:39:12;;;;;;;46.88;22.58;;;17.10;99.90;;;;;;5030255;28;20030;-88
2021/07/01 08:41:43;;;;;;;53.70;23.50;;;17.10;99.90;;;;;;4979491;28;20077;-90
2021/07/01 08:44:32;;;;;;;42.92;21.65;;;17.10;99.90;;;;;;4999984;28;20061;-89
2021/07/01 08:47:12;;;;;;;46.22;21.33;;;17.10;99.90;;;;;;4995380;28;20050;-89
2021/07/01 08:49:54;;;;;;;43.30;21.75;;;17.10;99.90;;;;;;4999604;28;20074;-88
2021/07/01 08:52:24;;;;;;;48.78;22.80;;;17.10;99.90;;;;;;5011591;28;20045;-90
2021/07/01 08:55:06;;;;;;;45.67;22.10;;;17.10;99.90;;;;;;5013246;28;20062;-89
2021/07/01 08:57:38;;;;;;;44.40;21.10;;;17.10;99.90;;;;;;5011880;28;20032;-90
2021/07/01 09:00:11;;;;;;;50.63;21.40;;;17.10;99.90;;;;;;5016121;28;20047;-89
2021/07/01 09:02:46;;;;;;;44.70;21.73;;;17.10;99.90;;;;;;4998224;28;20050;-89
2021/07/01 09:05:17;;;;;;;48.95;21.63;;;17.20;99.90;;;;;;5005143;28;20078;-90
2021/07/01 09:07:53;;;;;;;44.08;21.67;;;17.20;99.90;;;;;;4966503;29;20051;-93
2021/07/01 09:10:20;;;;;;;;;;;17.20;99.90;;;;;;4960289;29;20540;-89
2021/07/01 09:12:58;;;;;;;41.17;19.38;;;17.30;99.90;;;;;;4960110;29;19997;-89
2021/07/01 09:15:28;;;;;;;44.88;20.83;;;17.30;99.90;;;;;;4960121;29;20139;-88
2021/07/01 09:17:55;;;;;;;41.22;20.15;;;17.40;99.90;;;;;;4959545;29;20809;-92
2021/07/01 09:20:33;;;;;;;38.10;20.45;;;17.50;99.90;;;;;;4975167;29;20031;-89
2021/07/01 09:23:02;;;;;;;33.42;19.95;;;17.80;99.90;;;;;;4975893;29;20404;-90
2021/07/01 09:25:30;;;;;;;40.25;20.80;;;17.90;99.90;;;;;;4986033;29;20126;-86
2021/07/01 09:27:58;;;;;;;43.28;19.98;;;18.00;99.90;;;;;;4948990;29;20043;-90
2021/07/01 09:30:27;;;;;;;37.45;19.98;;;18.20;99.90;;;;;;4956979;29;20055;-90
2021/07/01 09:33:05;;;;;;;35.13;19.80;;;18.20;99.90;;;;;;4956072;29;20054;-88
2021/07/01 09:35:34;;;;;;;38.38;20.23;;;18.20;99.90;;;;;;4943323;29;20110;-90
2021/07/01 09:38:04;;;;;;;39.33;20.25;;;18.10;99.90;;;;;;4958872;29;20051;-89
2021/07/01 09:40:33;;;;;;;37.03;20.33;;;18.00;99.90;;;;;;4975674;29;20066;-90
2021/07/01 09:43:04;;;;;;;35.15;20.67;;;18.00;99.90;;;;;;4958282;29;20469;-91
2021/07/01 09:45:32;;;;;;;35.13;20.30;;;18.00;99.90;;;;;;4958926;29;20043;-89
2021/07/01 09:48:12;;;;;;;41.08;19.83;;;18.00;99.90;;;;;;4958718;29;20035;-92
2021/07/01 09:50:46;;;;;;;35.95;19.75;;;18.10;99.90;;;;;;4945704;29;20400;-91
2021/07/01 09:53:24;;;;;;;30.27;19.73;;;17.90;99.90;;;;;;4959400;29;20059;-93
2021/07/01 09:55:52;;;;;;;37.83;19.75;;;17.90;99.90;;;;;;4975187;29;20294;-92
2021/07/01 09:58:21;;;;;;;36.97;19.45;;;17.80;99.90;;;;;;4958117;29;20054;-91
2021/07/01 10:00:49;;;;;;;36.05;19.70;;;17.70;99.90;;;;;;4959224;29;20498;-90
2021/07/01 10:03:16;;;;;;;35.70;18.63;;;17.90;99.90;;;;;;4959882;29;20492;-91
2021/07/01 10:05:44;;;;;;;34.50;19.17;;;18.00;99.90;;;;;;4980705;28;20059;-92
2021/07/01 10:08:13;;;;;;;29.73;18.38;;;18.00;99.90;;;;;;4993827;28;20047;-91
2021/07/01 10:10:53;;;;;;;32.10;18.35;;;18.10;99.90;;;;;;5009870;28;20476;-91
2021/07/01 10:13:21;;;;;;;31.83;18.83;;;18.20;99.90;;;;;;4995433;28;20755;-89
2021/07/01 10:15:51;;;;;;;31.15;19.15;;;18.20;99.90;;;;;;4983525;28;20093;-94
2021/07/01 10:18:20;;;;;;;31.20;18.38;;;18.30;99.90;;;;;;4993526;28;20051;-91
2021/07/01 10:20:50;;;;;;;31.33;18.02;;;18.40;99.90;;;;;;4994145;28;20062;-89
2021/07/01 10:23:49;;;;;;;30.70;17.88;;;18.30;99.90;;;;;;4995217;28;20054;-89
2021/07/01 10:26:20;;;;;;;26.38;16.77;;;18.30;99.90;;;;;;4996371;28;20551;-93
2021/07/01 10:29:01;;;;;;;35.55;17.60;;;18.40;99.90;;;;;;4997700;28;20050;-90
2021/07/01 10:31:45;;;;;;;26.33;16.50;;;18.40;99.90;;;;;;4995962;28;20047;-90
2021/07/01 10:34:14;;;;;;;26.15;16.20;;;18.60;99.90;;;;;;5009627;28;20059;-90
2021/07/01 10:36:43;;;;;;;27.80;16.83;;;18.70;99.90;;;;;;4995942;28;20042;-96
2021/07/01 10:39:11;;;;;;;27.15;17.23;;;18.90;99.90;;;;;;4979453;28;20431;-95
2021/07/01 10:41:41;;;;;;;24.48;15.45;;;19.10;99.90;;;;;;4998610;28;20066;-83
2021/07/01 10:44:25;;;;;;;30.83;15.30;;;19.40;99.90;;;;;;5009436;28;20035;-89
2021/07/01 10:46:52;;;;;;;29.45;16.20;;;19.40;99.90;;;;;;5008320;28;20031;-87
2021/07/01 10:49:34;;;;;;;28.77;17.27;;;19.40;99.90;;;;;;5008544;28;20035;-88
2021/07/01 10:52:03;;;;;;;28.73;16.00;;;19.40;99.90;;;;;;5007805;28;20109;-85
2021/07/01 10:54:30;;;;;;;30.10;16.50;;;19.40;99.90;;;;;;5007493;28;20062;-85
2021/07/01 10:57:06;;;;;;;28.15;15.35;;;19.40;99.90;;;;;;5007996;28;20062;-86
2021/07/01 10:59:51;;;;;;;24.70;15.05;;;19.40;99.90;;;;;;5007658;28;20041;-87
2021/07/01 11:02:25;;;;;;;24.27;14.65;;;19.40;99.90;;;;;;5012450;28;20042;-85
2021/07/01 11:04:57;;;;;;;23.10;14.85;;;19.30;99.90;;;;;;5027533;28;20042;-86
2021/07/01 11:07:27;;;;;;;23.30;13.10;;;19.40;99.90;;;;;;5021287;28;20062;-85
2021/07/01 11:09:56;;;;;;;20.60;13.57;;;19.40;99.90;;;;;;5027708;28;20039;-89
2021/07/01 11:12:26;;;;;;;18.50;13.63;;;19.50;99.90;;;;;;4994178;28;20098;-87
2021/07/01 11:14:55;;;;;;;20.85;13.30;;;19.80;99.90;;;;;;5011258;28;20089;-86
2021/07/01 11:17:42;;;;;;;22.40;13.35;;;20.20;99.90;;;;;;5009020;28;20035;-89
2021/07/01 11:20:22;;;;;;;18.90;13.32;;;20.60;99.90;;;;;;5008047;28;20043;-88
2021/07/01 11:22:56;;;;;;;18.88;11.98;;;20.70;99.90;;;;;;5009288;28;20039;-93
2021/07/01 11:25:42;;;;;;;15.65;12.13;;;20.50;99.90;;;;;;4992876;28;20054;-90
2021/07/01 11:28:30;;;;;;;19.48;12.00;;;20.40;99.90;;;;;;5028297;28;20041;-95
2021/07/01 11:31:03;;;;;;;17.42;11.15;;;20.10;99.90;;;;;;5014696;28;20054;-96
2021/07/01 11:33:31;;;;;;;17.15;10.68;;;20.20;99.90;;;;;;5006061;28;20058;-93
2021/07/01 11:36:29;;;;;;;18.00;11.30;;;20.30;99.90;;;;;;4994462;28;20049;-95
2021/07/01 11:39:11;;;;;;;17.23;12.13;;;20.20;99.90;;;;;;4994601;28;20038;-94
2021/07/01 11:41:41;;;;;;;21.05;11.73;;;20.30;99.90;;;;;;5014134;28;20046;-95
2021/07/01 11:44:10;;;;;;;18.65;11.80;;;20.50;99.90;;;;;;4998100;28;20480;-94
2021/07/01 11:46:39;;;;;;;15.27;10.85;;;20.70;99.90;;;;;;5014579;28;20082;-96
2021/07/01 11:49:07;;;;;;;16.58;10.43;;;20.80;99.90;;;;;;4998098;28;20134;-94
2021/07/01 11:51:52;;;;;;;14.50;10.40;;;20.90;99.90;;;;;;4999809;28;20054;-96
2021/07/01 11:54:20;;;;;;;15.88;9.82;;;20.80;99.90;;;;;;4996281;28;20047;-94
2021/07/01 11:56:53;;;;;;;13.73;9.90;;;20.70;99.90;;;;;;4998245;28;20058;-94
2021/07/01 11:59:26;;;;;;;16.90;10.40;;;20.60;99.90;;;;;;4981760;29;20051;-94
2021/07/01 12:01:53;;;;;;;14.57;10.55;;;20.30;99.90;;;;;;4995043;29;20135;-95
2021/07/01 12:04:32;;;;;;;13.90;10.32;;;20.70;99.90;;;;;;5010083;28;20037;-94
2021/07/01 12:07:06;;;;;;;13.93;9.35;;;21.00;99.90;;;;;;4993024;29;20063;-95
2021/07/01 12:09:40;;;;;;;;;;;21.20;99.90;;;;;;4993677;29;20059;-95
2021/07/01 12:12:11;;;;;;;12.35;8.73;;;21.20;99.90;;;;;;4996764;28;19928;-92
2021/07/01 12:14:43;;;;;;;14.43;8.90;;;21.20;99.90;;;;;;4994891;28;20033;-94
2021/07/01 12:20:58;;;;;;;11.30;8.32;;;21.40;99.90;;;;;;4984258;28;20078;-94
2021/07/01 12:31:29;;;;;;;17.83;9.55;;;20.90;99.90;;;;;;4877555;29;20577;-87
2021/07/01 12:34:03;;;;;;;12.55;9.60;;;20.70;99.90;;;;;;4871048;29;20121;-86
2021/07/01 12:36:33;;;;;;;14.20;9.73;;;20.70;99.90;;;;;;4939582;29;20402;-83
2021/07/01 12:39:24;;;;;;;14.52;9.70;;;20.70;99.90;;;;;;5010804;28;20444;-88
2021/07/01 12:41:55;;;;;;;13.32;8.30;;;20.80;99.90;;;;;;4996081;28;20059;-90
2021/07/01 12:44:36;;;;;;;12.40;8.50;;;21.00;99.90;;;;;;5011161;28;20522;-90
2021/07/01 12:47:04;;;;;;;10.57;8.18;;;21.20;99.90;;;;;;4992492;29;20035;-90
2021/07/01 12:49:34;;;;;;;10.70;8.52;;;21.40;99.90;;;;;;4999551;28;20491;-84
2021/07/01 12:52:03;;;;;;;10.82;7.93;;;21.70;99.90;;;;;;5010032;28;20399;-84
2021/07/01 12:54:29;;;;;;;10.57;8.25;;;22.00;99.90;;;;;;5010190;28;20410;-86
2021/07/01 12:56:56;;;;;;;12.13;7.90;;;22.10;99.90;;;;;;5009096;28;20038;-87